Lewistown, Montana
Current Conditions -  °F | °C
As of 4:54 PM on Sunday 23 Nov 2014 (Local Time) from KLWT Reporting Station
Clear Clear  
Wind Chill: -2°   Ceiling: Unl
Heat Index:   Visibility: 10mi
Dew Point: -8°   Wind: 9mph
Humidity: 48%   Direction: 290°WNW
Pressure: 29.84"   Gusts: NA
Location:  47.07°N, 109.42°W
Report Text: KLWT 232354Z AUTO 29008KT 10SM CLR 02/M08 A2984 RMK AO2 SLP128 T00171083 10056 20017 56001
Loading
Personal Weather Stations






























Interactive Weather Map New forecast layout! Learn more

10-Day Weather Forecast

Advertisements
Track Severe Weather on mobile